sensor_id;sensor_type;location;lat;lon;timestamp;P1;durP1;ratioP1;P2;durP2;ratioP2
59770;SDS011;45649;53.014;6.600;2022-12-29T00:02:25;4.97;;;4.67;;
59770;SDS011;45649;53.014;6.600;2022-12-29T00:04:51;5.57;;;5.17;;
59770;SDS011;45649;53.014;6.600;2022-12-29T00:07:18;5.83;;;5.40;;
59770;SDS011;45649;53.014;6.600;2022-12-29T00:09:44;5.67;;;5.17;;
59770;SDS011;45649;53.014;6.600;2022-12-29T00:12:10;6.00;;;5.57;;
59770;SDS011;45649;53.014;6.600;2022-12-29T00:14:36;5.50;;;5.20;;
59770;SDS011;45649;53.014;6.600;2022-12-29T00:17:21;6.40;;;6.00;;
59770;SDS011;45649;53.014;6.600;2022-12-29T00:19:50;6.10;;;5.60;;
59770;SDS011;45649;53.014;6.600;2022-12-29T00:22:35;6.50;;;5.93;;
59770;SDS011;45649;53.014;6.600;2022-12-29T00:25:20;7.07;;;6.47;;
59770;SDS011;45649;53.014;6.600;2022-12-29T00:28:07;6.90;;;6.27;;
59770;SDS011;45649;53.014;6.600;2022-12-29T00:30:52;6.27;;;5.87;;
59770;SDS011;45649;53.014;6.600;2022-12-29T00:33:37;7.00;;;6.40;;
59770;SDS011;45649;53.014;6.600;2022-12-29T00:38:53;6.63;;;6.13;;
59770;SDS011;45649;53.014;6.600;2022-12-29T00:41:39;6.97;;;6.47;;
59770;SDS011;45649;53.014;6.600;2022-12-29T00:44:25;6.33;;;5.87;;
59770;SDS011;45649;53.014;6.600;2022-12-29T00:46:51;6.10;;;5.70;;
59770;SDS011;45649;53.014;6.600;2022-12-29T00:49:18;6.27;;;5.77;;
59770;SDS011;45649;53.014;6.600;2022-12-29T00:51:58;6.97;;;6.43;;
59770;SDS011;45649;53.014;6.600;2022-12-29T00:54:24;7.00;;;6.37;;
59770;SDS011;45649;53.014;6.600;2022-12-29T00:56:50;5.83;;;5.43;;
59770;SDS011;45649;53.014;6.600;2022-12-29T00:59:17;6.17;;;5.67;;
59770;SDS011;45649;53.014;6.600;2022-12-29T01:01:44;6.40;;;5.70;;
59770;SDS011;45649;53.014;6.600;2022-12-29T01:04:10;6.20;;;5.70;;
59770;SDS011;45649;53.014;6.600;2022-12-29T01:06:37;6.30;;;5.87;;
59770;SDS011;45649;53.014;6.600;2022-12-29T01:09:04;6.20;;;5.70;;
59770;SDS011;45649;53.014;6.600;2022-12-29T01:11:49;6.00;;;5.43;;
59770;SDS011;45649;53.014;6.600;2022-12-29T01:14:16;5.30;;;4.90;;
59770;SDS011;45649;53.014;6.600;2022-12-29T01:16:42;5.87;;;5.33;;
59770;SDS011;45649;53.014;6.600;2022-12-29T01:19:08;5.50;;;4.97;;
59770;SDS011;45649;53.014;6.600;2022-12-29T01:21:34;5.77;;;5.27;;
59770;SDS011;45649;53.014;6.600;2022-12-29T01:24:01;5.53;;;5.13;;
59770;SDS011;45649;53.014;6.600;2022-12-29T01:26:27;5.03;;;4.63;;
59770;SDS011;45649;53.014;6.600;2022-12-29T01:28:54;5.70;;;5.20;;
59770;SDS011;45649;53.014;6.600;2022-12-29T01:31:20;5.30;;;4.90;;
59770;SDS011;45649;53.014;6.600;2022-12-29T01:33:46;4.97;;;4.57;;
59770;SDS011;45649;53.014;6.600;2022-12-29T01:36:13;5.23;;;4.83;;
59770;SDS011;45649;53.014;6.600;2022-12-29T01:38:40;5.07;;;4.73;;
59770;SDS011;45649;53.014;6.600;2022-12-29T01:41:07;4.80;;;4.40;;
59770;SDS011;45649;53.014;6.600;2022-12-29T01:43:50;4.80;;;4.50;;
59770;SDS011;45649;53.014;6.600;2022-12-29T01:46:34;4.40;;;4.10;;
59770;SDS011;45649;53.014;6.600;2022-12-29T01:54:11;4.33;;;3.93;;
59770;SDS011;45649;53.014;6.600;2022-12-29T01:56:38;4.33;;;4.00;;
59770;SDS011;45649;53.014;6.600;2022-12-29T01:59:06;4.20;;;3.90;;
59770;SDS011;45649;53.014;6.600;2022-12-29T02:01:35;4.37;;;4.07;;
59770;SDS011;45649;53.014;6.600;2022-12-29T02:04:01;4.20;;;3.80;;
59770;SDS011;45649;53.014;6.600;2022-12-29T02:06:35;4.30;;;4.00;;
59770;SDS011;45649;53.014;6.600;2022-12-29T02:09:03;3.97;;;3.70;;
59770;SDS011;45649;53.014;6.600;2022-12-29T02:11:29;4.07;;;3.60;;
59770;SDS011;45649;53.014;6.600;2022-12-29T02:13:56;3.80;;;3.60;;
59770;SDS011;45649;53.014;6.600;2022-12-29T02:29:15;3.83;;;3.53;;
59770;SDS011;45649;53.014;6.600;2022-12-29T02:31:58;3.97;;;3.63;;
59770;SDS011;45649;53.014;6.600;2022-12-29T02:37:12;4.40;;;3.20;;
59770;SDS011;45649;53.014;6.600;2022-12-29T02:49:47;3.33;;;3.03;;
59770;SDS011;45649;53.014;6.600;2022-12-29T02:52:18;3.63;;;3.33;;
59770;SDS011;45649;53.014;6.600;2022-12-29T02:54:48;4.13;;;3.20;;
59770;SDS011;45649;53.014;6.600;2022-12-29T02:57:15;3.80;;;3.10;;
59770;SDS011;45649;53.014;6.600;2022-12-29T02:59:54;3.30;;;3.00;;
59770;SDS011;45649;53.014;6.600;2022-12-29T03:05:17;2.80;;;2.60;;
59770;SDS011;45649;53.014;6.600;2022-12-29T03:10:30;2.80;;;2.60;;
59770;SDS011;45649;53.014;6.600;2022-12-29T03:16:06;2.10;;;2.00;;
59770;SDS011;45649;53.014;6.600;2022-12-29T03:24:19;2.70;;;2.10;;
59770;SDS011;45649;53.014;6.600;2022-12-29T03:26:47;2.50;;;2.03;;
59770;SDS011;45649;53.014;6.600;2022-12-29T03:29:13;3.83;;;2.07;;
59770;SDS011;45649;53.014;6.600;2022-12-29T03:31:41;2.60;;;2.10;;
59770;SDS011;45649;53.014;6.600;2022-12-29T03:34:08;2.20;;;2.00;;
59770;SDS011;45649;53.014;6.600;2022-12-29T03:36:41;2.90;;;2.20;;
59770;SDS011;45649;53.014;6.600;2022-12-29T03:39:09;2.03;;;1.83;;
59770;SDS011;45649;53.014;6.600;2022-12-29T03:41:58;1.90;;;1.80;;
59770;SDS011;45649;53.014;6.600;2022-12-29T03:44:38;4.40;;;1.90;;
59770;SDS011;45649;53.014;6.600;2022-12-29T03:47:06;1.87;;;1.70;;
59770;SDS011;45649;53.014;6.600;2022-12-29T03:49:32;1.87;;;1.77;;
59770;SDS011;45649;53.014;6.600;2022-12-29T03:51:58;2.33;;;2.10;;
59770;SDS011;45649;53.014;6.600;2022-12-29T03:54:24;2.37;;;2.17;;
59770;SDS011;45649;53.014;6.600;2022-12-29T03:56:51;2.50;;;1.80;;
59770;SDS011;45649;53.014;6.600;2022-12-29T03:59:17;2.47;;;2.00;;
59770;SDS011;45649;53.014;6.600;2022-12-29T04:01:44;2.63;;;1.87;;
59770;SDS011;45649;53.014;6.600;2022-12-29T04:04:10;2.43;;;1.97;;
59770;SDS011;45649;53.014;6.600;2022-12-29T04:06:36;2.03;;;1.80;;
59770;SDS011;45649;53.014;6.600;2022-12-29T04:09:02;4.47;;;2.10;;
59770;SDS011;45649;53.014;6.600;2022-12-29T04:11:28;2.33;;;1.93;;
59770;SDS011;45649;53.014;6.600;2022-12-29T04:13:55;2.53;;;1.67;;
59770;SDS011;45649;53.014;6.600;2022-12-29T04:16:21;2.27;;;1.73;;
59770;SDS011;45649;53.014;6.600;2022-12-29T04:18:48;4.17;;;1.70;;
59770;SDS011;45649;53.014;6.600;2022-12-29T04:21:14;3.40;;;1.80;;
59770;SDS011;45649;53.014;6.600;2022-12-29T04:23:40;3.07;;;1.80;;
59770;SDS011;45649;53.014;6.600;2022-12-29T04:26:07;4.80;;;1.70;;
59770;SDS011;45649;53.014;6.600;2022-12-29T04:28:34;4.23;;;1.70;;
59770;SDS011;45649;53.014;6.600;2022-12-29T04:31:00;2.53;;;1.60;;
59770;SDS011;45649;53.014;6.600;2022-12-29T04:33:27;2.37;;;1.27;;
59770;SDS011;45649;53.014;6.600;2022-12-29T04:38:58;2.97;;;1.40;;
59770;SDS011;45649;53.014;6.600;2022-12-29T04:41:24;3.43;;;1.40;;
59770;SDS011;45649;53.014;6.600;2022-12-29T04:43:50;2.40;;;1.07;;
59770;SDS011;45649;53.014;6.600;2022-12-29T04:46:17;1.97;;;1.30;;
59770;SDS011;45649;53.014;6.600;2022-12-29T04:48:43;3.23;;;1.20;;
59770;SDS011;45649;53.014;6.600;2022-12-29T04:51:09;2.87;;;1.10;;
59770;SDS011;45649;53.014;6.600;2022-12-29T04:53:35;3.50;;;1.30;;
59770;SDS011;45649;53.014;6.600;2022-12-29T04:56:01;3.10;;;1.23;;
59770;SDS011;45649;53.014;6.600;2022-12-29T04:58:28;5.47;;;1.40;;
59770;SDS011;45649;53.014;6.600;2022-12-29T05:00:54;2.83;;;1.30;;
59770;SDS011;45649;53.014;6.600;2022-12-29T05:03:20;3.70;;;1.40;;
59770;SDS011;45649;53.014;6.600;2022-12-29T05:05:46;3.53;;;1.60;;
59770;SDS011;45649;53.014;6.600;2022-12-29T05:08:12;3.73;;;1.40;;
59770;SDS011;45649;53.014;6.600;2022-12-29T05:10:38;3.50;;;1.57;;
59770;SDS011;45649;53.014;6.600;2022-12-29T05:13:05;3.60;;;1.77;;
59770;SDS011;45649;53.014;6.600;2022-12-29T05:15:31;4.13;;;1.70;;
59770;SDS011;45649;53.014;6.600;2022-12-29T05:17:58;6.80;;;2.00;;
59770;SDS011;45649;53.014;6.600;2022-12-29T05:20:24;4.00;;;1.60;;
59770;SDS011;45649;53.014;6.600;2022-12-29T05:22:50;5.57;;;2.00;;
59770;SDS011;45649;53.014;6.600;2022-12-29T05:25:17;4.73;;;2.03;;
59770;SDS011;45649;53.014;6.600;2022-12-29T05:27:43;5.40;;;1.70;;
59770;SDS011;45649;53.014;6.600;2022-12-29T05:30:09;5.57;;;1.80;;
59770;SDS011;45649;53.014;6.600;2022-12-29T05:32:35;7.17;;;1.90;;
59770;SDS011;45649;53.014;6.600;2022-12-29T05:35:02;7.93;;;2.03;;
59770;SDS011;45649;53.014;6.600;2022-12-29T05:37:28;6.27;;;1.83;;
59770;SDS011;45649;53.014;6.600;2022-12-29T05:39:54;11.70;;;2.23;;
59770;SDS011;45649;53.014;6.600;2022-12-29T05:42:20;7.90;;;2.17;;
59770;SDS011;45649;53.014;6.600;2022-12-29T05:44:46;4.70;;;1.80;;
59770;SDS011;45649;53.014;6.600;2022-12-29T05:47:15;8.07;;;2.13;;
59770;SDS011;45649;53.014;6.600;2022-12-29T05:49:41;5.87;;;2.30;;
59770;SDS011;45649;53.014;6.600;2022-12-29T05:52:07;7.03;;;1.93;;
59770;SDS011;45649;53.014;6.600;2022-12-29T05:54:34;4.77;;;1.73;;
59770;SDS011;45649;53.014;6.600;2022-12-29T05:57:00;5.13;;;1.97;;
59770;SDS011;45649;53.014;6.600;2022-12-29T05:59:26;5.37;;;1.93;;
59770;SDS011;45649;53.014;6.600;2022-12-29T06:01:52;2.67;;;1.57;;
59770;SDS011;45649;53.014;6.600;2022-12-29T06:04:18;7.10;;;1.53;;
59770;SDS011;45649;53.014;6.600;2022-12-29T06:06:44;7.43;;;2.10;;
59770;SDS011;45649;53.014;6.600;2022-12-29T06:09:11;5.57;;;1.80;;
59770;SDS011;45649;53.014;6.600;2022-12-29T06:11:37;6.77;;;1.83;;
59770;SDS011;45649;53.014;6.600;2022-12-29T06:14:03;4.80;;;1.70;;
59770;SDS011;45649;53.014;6.600;2022-12-29T06:16:29;6.77;;;1.60;;
59770;SDS011;45649;53.014;6.600;2022-12-29T06:18:56;6.93;;;1.60;;
59770;SDS011;45649;53.014;6.600;2022-12-29T06:21:22;7.70;;;1.73;;
59770;SDS011;45649;53.014;6.600;2022-12-29T06:23:48;4.67;;;1.63;;
59770;SDS011;45649;53.014;6.600;2022-12-29T06:26:14;6.27;;;2.03;;
59770;SDS011;45649;53.014;6.600;2022-12-29T06:28:40;3.53;;;1.57;;
59770;SDS011;45649;53.014;6.600;2022-12-29T06:31:09;8.10;;;1.83;;
59770;SDS011;45649;53.014;6.600;2022-12-29T06:33:35;5.77;;;1.80;;
59770;SDS011;45649;53.014;6.600;2022-12-29T06:36:02;6.07;;;2.00;;
59770;SDS011;45649;53.014;6.600;2022-12-29T06:38:28;8.87;;;2.00;;
59770;SDS011;45649;53.014;6.600;2022-12-29T06:40:54;7.00;;;1.90;;
59770;SDS011;45649;53.014;6.600;2022-12-29T06:43:21;9.20;;;2.20;;
59770;SDS011;45649;53.014;6.600;2022-12-29T06:45:47;7.83;;;2.10;;
59770;SDS011;45649;53.014;6.600;2022-12-29T06:48:13;6.60;;;1.97;;
59770;SDS011;45649;53.014;6.600;2022-12-29T06:50:39;6.83;;;2.00;;
59770;SDS011;45649;53.014;6.600;2022-12-29T06:53:05;11.60;;;2.50;;
59770;SDS011;45649;53.014;6.600;2022-12-29T06:55:32;9.17;;;2.10;;
59770;SDS011;45649;53.014;6.600;2022-12-29T06:57:58;8.70;;;2.30;;
59770;SDS011;45649;53.014;6.600;2022-12-29T07:00:26;7.60;;;2.30;;
59770;SDS011;45649;53.014;6.600;2022-12-29T07:02:52;9.37;;;2.37;;
59770;SDS011;45649;53.014;6.600;2022-12-29T07:05:20;7.10;;;2.37;;
59770;SDS011;45649;53.014;6.600;2022-12-29T07:07:46;9.20;;;2.20;;
59770;SDS011;45649;53.014;6.600;2022-12-29T07:10:12;6.57;;;2.13;;
59770;SDS011;45649;53.014;6.600;2022-12-29T07:12:38;8.17;;;2.40;;
59770;SDS011;45649;53.014;6.600;2022-12-29T07:15:04;7.47;;;2.30;;
59770;SDS011;45649;53.014;6.600;2022-12-29T07:17:30;8.63;;;2.03;;
59770;SDS011;45649;53.014;6.600;2022-12-29T07:19:57;6.93;;;1.93;;
59770;SDS011;45649;53.014;6.600;2022-12-29T07:22:23;12.33;;;2.80;;
59770;SDS011;45649;53.014;6.600;2022-12-29T07:24:49;7.77;;;2.20;;
59770;SDS011;45649;53.014;6.600;2022-12-29T07:27:16;6.40;;;2.67;;
59770;SDS011;45649;53.014;6.600;2022-12-29T07:29:42;10.40;;;2.20;;
59770;SDS011;45649;53.014;6.600;2022-12-29T07:32:08;9.03;;;2.40;;
59770;SDS011;45649;53.014;6.600;2022-12-29T07:34:35;8.57;;;2.63;;
59770;SDS011;45649;53.014;6.600;2022-12-29T07:37:01;6.87;;;2.37;;
59770;SDS011;45649;53.014;6.600;2022-12-29T07:39:27;10.43;;;2.60;;
59770;SDS011;45649;53.014;6.600;2022-12-29T07:41:53;9.77;;;2.40;;
59770;SDS011;45649;53.014;6.600;2022-12-29T07:44:19;7.77;;;2.20;;
59770;SDS011;45649;53.014;6.600;2022-12-29T07:46:46;6.63;;;2.50;;
59770;SDS011;45649;53.014;6.600;2022-12-29T07:49:12;11.47;;;2.70;;
59770;SDS011;45649;53.014;6.600;2022-12-29T07:51:39;9.87;;;2.63;;
59770;SDS011;45649;53.014;6.600;2022-12-29T07:54:05;8.43;;;2.23;;
59770;SDS011;45649;53.014;6.600;2022-12-29T07:56:31;8.73;;;2.30;;
59770;SDS011;45649;53.014;6.600;2022-12-29T07:58:57;10.60;;;2.87;;
59770;SDS011;45649;53.014;6.600;2022-12-29T08:01:23;9.93;;;2.03;;
59770;SDS011;45649;53.014;6.600;2022-12-29T08:03:50;13.00;;;2.70;;
59770;SDS011;45649;53.014;6.600;2022-12-29T08:06:16;7.80;;;2.27;;
59770;SDS011;45649;53.014;6.600;2022-12-29T08:08:43;9.67;;;2.30;;
59770;SDS011;45649;53.014;6.600;2022-12-29T08:11:09;9.53;;;2.20;;
59770;SDS011;45649;53.014;6.600;2022-12-29T08:13:35;8.23;;;2.57;;
59770;SDS011;45649;53.014;6.600;2022-12-29T08:16:01;9.33;;;2.30;;
59770;SDS011;45649;53.014;6.600;2022-12-29T08:18:27;9.07;;;2.40;;
59770;SDS011;45649;53.014;6.600;2022-12-29T08:20:54;7.37;;;2.33;;
59770;SDS011;45649;53.014;6.600;2022-12-29T08:23:20;9.30;;;2.53;;
59770;SDS011;45649;53.014;6.600;2022-12-29T08:25:46;9.00;;;2.30;;
59770;SDS011;45649;53.014;6.600;2022-12-29T08:28:12;11.13;;;2.77;;
59770;SDS011;45649;53.014;6.600;2022-12-29T08:30:39;9.37;;;2.57;;
59770;SDS011;45649;53.014;6.600;2022-12-29T08:33:05;13.90;;;2.93;;
59770;SDS011;45649;53.014;6.600;2022-12-29T08:35:31;8.97;;;2.57;;
59770;SDS011;45649;53.014;6.600;2022-12-29T08:37:57;12.03;;;2.40;;
59770;SDS011;45649;53.014;6.600;2022-12-29T08:40:23;13.07;;;2.80;;
59770;SDS011;45649;53.014;6.600;2022-12-29T08:42:49;10.73;;;3.20;;
59770;SDS011;45649;53.014;6.600;2022-12-29T08:45:16;11.17;;;2.63;;
59770;SDS011;45649;53.014;6.600;2022-12-29T08:47:42;10.40;;;2.63;;
59770;SDS011;45649;53.014;6.600;2022-12-29T08:50:08;13.47;;;3.40;;
59770;SDS011;45649;53.014;6.600;2022-12-29T08:52:34;13.53;;;2.83;;
59770;SDS011;45649;53.014;6.600;2022-12-29T08:55:00;14.53;;;2.93;;
59770;SDS011;45649;53.014;6.600;2022-12-29T08:57:27;12.70;;;3.30;;
59770;SDS011;45649;53.014;6.600;2022-12-29T08:59:53;12.80;;;2.80;;
59770;SDS011;45649;53.014;6.600;2022-12-29T09:02:19;12.87;;;2.97;;
59770;SDS011;45649;53.014;6.600;2022-12-29T09:04:45;12.97;;;3.60;;
59770;SDS011;45649;53.014;6.600;2022-12-29T09:07:11;10.87;;;3.10;;
59770;SDS011;45649;53.014;6.600;2022-12-29T09:09:37;12.53;;;3.10;;
59770;SDS011;45649;53.014;6.600;2022-12-29T09:12:03;11.27;;;2.80;;
59770;SDS011;45649;53.014;6.600;2022-12-29T09:14:30;11.50;;;3.10;;
59770;SDS011;45649;53.014;6.600;2022-12-29T09:16:56;15.10;;;2.90;;
59770;SDS011;45649;53.014;6.600;2022-12-29T09:19:41;11.20;;;2.97;;
59770;SDS011;45649;53.014;6.600;2022-12-29T09:22:07;14.00;;;2.73;;
59770;SDS011;45649;53.014;6.600;2022-12-29T09:24:33;9.47;;;2.30;;
59770;SDS011;45649;53.014;6.600;2022-12-29T09:26:59;13.20;;;2.93;;
59770;SDS011;45649;53.014;6.600;2022-12-29T09:29:25;13.90;;;2.95;;
59770;SDS011;45649;53.014;6.600;2022-12-29T09:31:51;11.40;;;2.90;;
59770;SDS011;45649;53.014;6.600;2022-12-29T09:34:18;16.13;;;3.33;;
59770;SDS011;45649;53.014;6.600;2022-12-29T09:36:44;15.23;;;3.13;;
59770;SDS011;45649;53.014;6.600;2022-12-29T09:39:11;11.13;;;2.23;;
59770;SDS011;45649;53.014;6.600;2022-12-29T09:42:13;8.47;;;2.93;;
59770;SDS011;45649;53.014;6.600;2022-12-29T09:46:57;11.30;;;2.80;;
59770;SDS011;45649;53.014;6.600;2022-12-29T09:51:59;12.57;;;2.67;;
59770;SDS011;45649;53.014;6.600;2022-12-29T09:57:13;12.00;;;2.93;;
59770;SDS011;45649;53.014;6.600;2022-12-29T09:59:41;10.17;;;2.80;;
59770;SDS011;45649;53.014;6.600;2022-12-29T10:04:34;11.77;;;2.70;;
59770;SDS011;45649;53.014;6.600;2022-12-29T10:07:02;12.53;;;2.87;;
59770;SDS011;45649;53.014;6.600;2022-12-29T10:09:41;12.97;;;2.90;;
59770;SDS011;45649;53.014;6.600;2022-12-29T10:25:32;10.47;;;2.70;;
59770;SDS011;45649;53.014;6.600;2022-12-29T10:27:59;11.03;;;2.60;;
59770;SDS011;45649;53.014;6.600;2022-12-29T10:30:28;11.90;;;2.80;;
59770;SDS011;45649;53.014;6.600;2022-12-29T10:32:55;10.20;;;2.50;;
59770;SDS011;45649;53.014;6.600;2022-12-29T10:35:40;10.87;;;2.57;;
59770;SDS011;45649;53.014;6.600;2022-12-29T10:40:42;5.23;;;2.20;;
59770;SDS011;45649;53.014;6.600;2022-12-29T10:43:26;10.93;;;2.77;;
59770;SDS011;45649;53.014;6.600;2022-12-29T10:45:53;9.83;;;2.47;;
59770;SDS011;45649;53.014;6.600;2022-12-29T10:48:21;11.10;;;2.53;;
59770;SDS011;45649;53.014;6.600;2022-12-29T10:50:48;9.27;;;2.70;;
59770;SDS011;45649;53.014;6.600;2022-12-29T10:53:26;9.80;;;2.87;;
59770;SDS011;45649;53.014;6.600;2022-12-29T10:55:55;7.60;;;2.30;;
59770;SDS011;45649;53.014;6.600;2022-12-29T10:58:21;7.47;;;2.23;;
59770;SDS011;45649;53.014;6.600;2022-12-29T11:00:52;9.57;;;2.60;;
59770;SDS011;45649;53.014;6.600;2022-12-29T11:03:39;9.90;;;2.20;;
59770;SDS011;45649;53.014;6.600;2022-12-29T11:06:12;8.90;;;2.57;;
59770;SDS011;45649;53.014;6.600;2022-12-29T11:08:41;9.53;;;2.70;;
59770;SDS011;45649;53.014;6.600;2022-12-29T11:11:11;9.77;;;2.30;;
59770;SDS011;45649;53.014;6.600;2022-12-29T11:13:50;8.07;;;2.30;;
59770;SDS011;45649;53.014;6.600;2022-12-29T11:16:26;6.87;;;2.20;;
59770;SDS011;45649;53.014;6.600;2022-12-29T11:18:53;7.20;;;2.23;;
59770;SDS011;45649;53.014;6.600;2022-12-29T11:21:37;9.63;;;2.77;;
59770;SDS011;45649;53.014;6.600;2022-12-29T11:24:26;10.07;;;2.60;;
59770;SDS011;45649;53.014;6.600;2022-12-29T11:27:08;8.43;;;2.70;;
59770;SDS011;45649;53.014;6.600;2022-12-29T11:29:38;8.57;;;2.20;;
59770;SDS011;45649;53.014;6.600;2022-12-29T11:34:37;12.80;;;2.50;;
59770;SDS011;45649;53.014;6.600;2022-12-29T11:41:57;10.83;;;3.20;;
59770;SDS011;45649;53.014;6.600;2022-12-29T11:44:23;11.53;;;3.03;;
59770;SDS011;45649;53.014;6.600;2022-12-29T11:46:50;12.53;;;2.77;;
59770;SDS011;45649;53.014;6.600;2022-12-29T11:49:19;11.10;;;2.83;;
59770;SDS011;45649;53.014;6.600;2022-12-29T11:51:46;12.47;;;3.30;;
59770;SDS011;45649;53.014;6.600;2022-12-29T11:54:15;11.50;;;3.00;;
59770;SDS011;45649;53.014;6.600;2022-12-29T11:56:43;12.70;;;3.27;;
59770;SDS011;45649;53.014;6.600;2022-12-29T12:01:51;13.57;;;3.43;;
59770;SDS011;45649;53.014;6.600;2022-12-29T12:04:17;15.40;;;3.47;;
59770;SDS011;45649;53.014;6.600;2022-12-29T12:06:46;15.43;;;3.40;;
59770;SDS011;45649;53.014;6.600;2022-12-29T12:09:16;18.90;;;4.10;;
59770;SDS011;45649;53.014;6.600;2022-12-29T12:11:42;18.00;;;3.80;;
59770;SDS011;45649;53.014;6.600;2022-12-29T12:14:32;18.67;;;3.93;;
59770;SDS011;45649;53.014;6.600;2022-12-29T12:17:09;21.40;;;4.20;;
59770;SDS011;45649;53.014;6.600;2022-12-29T12:19:46;14.87;;;3.50;;
59770;SDS011;45649;53.014;6.600;2022-12-29T12:22:31;16.13;;;3.33;;
59770;SDS011;45649;53.014;6.600;2022-12-29T12:25:18;20.80;;;4.23;;
59770;SDS011;45649;53.014;6.600;2022-12-29T12:28:00;14.63;;;3.60;;
59770;SDS011;45649;53.014;6.600;2022-12-29T12:30:29;18.87;;;4.53;;
59770;SDS011;45649;53.014;6.600;2022-12-29T12:33:10;19.50;;;4.00;;
59770;SDS011;45649;53.014;6.600;2022-12-29T12:41:30;15.95;;;4.57;;
59770;SDS011;45649;53.014;6.600;2022-12-29T12:44:01;18.20;;;4.00;;
59770;SDS011;45649;53.014;6.600;2022-12-29T12:49:42;20.97;;;4.13;;
59770;SDS011;45649;53.014;6.600;2022-12-29T13:00:17;15.97;;;3.10;;
59770;SDS011;45649;53.014;6.600;2022-12-29T13:13:38;16.27;;;3.30;;
59770;SDS011;45649;53.014;6.600;2022-12-29T13:21:29;12.13;;;3.07;;
59770;SDS011;45649;53.014;6.600;2022-12-29T13:32:18;14.03;;;3.23;;
59770;SDS011;45649;53.014;6.600;2022-12-29T13:37:33;11.03;;;3.00;;
59770;SDS011;45649;53.014;6.600;2022-12-29T13:40:02;12.23;;;2.97;;
59770;SDS011;45649;53.014;6.600;2022-12-29T13:42:29;9.40;;;2.47;;
59770;SDS011;45649;53.014;6.600;2022-12-29T13:44:59;14.23;;;3.00;;
59770;SDS011;45649;53.014;6.600;2022-12-29T13:47:30;11.57;;;2.67;;
59770;SDS011;45649;53.014;6.600;2022-12-29T13:49:58;11.10;;;3.00;;
59770;SDS011;45649;53.014;6.600;2022-12-29T13:52:35;9.20;;;2.60;;
59770;SDS011;45649;53.014;6.600;2022-12-29T13:57:44;15.00;;;2.90;;
59770;SDS011;45649;53.014;6.600;2022-12-29T14:00:18;10.53;;;3.00;;
59770;SDS011;45649;53.014;6.600;2022-12-29T14:07:44;11.47;;;3.00;;
59770;SDS011;45649;53.014;6.600;2022-12-29T14:12:59;13.77;;;3.03;;
59770;SDS011;45649;53.014;6.600;2022-12-29T14:15:26;11.07;;;2.83;;
59770;SDS011;45649;53.014;6.600;2022-12-29T14:18:00;9.10;;;3.03;;
59770;SDS011;45649;53.014;6.600;2022-12-29T14:20:27;13.17;;;3.00;;
59770;SDS011;45649;53.014;6.600;2022-12-29T14:22:58;16.53;;;3.27;;
59770;SDS011;45649;53.014;6.600;2022-12-29T14:28:16;10.47;;;2.93;;
59770;SDS011;45649;53.014;6.600;2022-12-29T14:30:46;12.80;;;3.13;;
59770;SDS011;45649;53.014;6.600;2022-12-29T14:33:13;9.53;;;2.93;;
59770;SDS011;45649;53.014;6.600;2022-12-29T14:35:43;16.37;;;4.17;;
59770;SDS011;45649;53.014;6.600;2022-12-29T14:38:21;12.73;;;4.40;;
59770;SDS011;45649;53.014;6.600;2022-12-29T14:40:48;10.90;;;3.50;;
59770;SDS011;45649;53.014;6.600;2022-12-29T14:43:34;12.55;;;3.45;;
59770;SDS011;45649;53.014;6.600;2022-12-29T14:46:03;11.23;;;3.43;;
59770;SDS011;45649;53.014;6.600;2022-12-29T14:48:35;16.87;;;4.03;;
59770;SDS011;45649;53.014;6.600;2022-12-29T14:51:02;12.67;;;4.30;;
59770;SDS011;45649;53.014;6.600;2022-12-29T14:53:47;12.20;;;3.37;;
59770;SDS011;45649;53.014;6.600;2022-12-29T14:56:14;10.40;;;3.00;;
59770;SDS011;45649;53.014;6.600;2022-12-29T14:58:44;12.37;;;3.63;;
59770;SDS011;45649;53.014;6.600;2022-12-29T15:01:17;8.83;;;2.97;;
59770;SDS011;45649;53.014;6.600;2022-12-29T15:03:50;12.10;;;3.03;;
59770;SDS011;45649;53.014;6.600;2022-12-29T15:06:18;8.37;;;2.50;;
59770;SDS011;45649;53.014;6.600;2022-12-29T15:11:24;15.07;;;2.80;;
59770;SDS011;45649;53.014;6.600;2022-12-29T15:13:51;10.13;;;2.80;;
59770;SDS011;45649;53.014;6.600;2022-12-29T15:16:24;11.17;;;2.70;;
59770;SDS011;45649;53.014;6.600;2022-12-29T15:18:52;7.10;;;2.27;;
59770;SDS011;45649;53.014;6.600;2022-12-29T15:21:20;8.17;;;2.47;;
59770;SDS011;45649;53.014;6.600;2022-12-29T15:23:48;10.13;;;3.10;;
59770;SDS011;45649;53.014;6.600;2022-12-29T15:26:14;7.63;;;2.80;;
59770;SDS011;45649;53.014;6.600;2022-12-29T15:28:47;8.10;;;3.47;;
59770;SDS011;45649;53.014;6.600;2022-12-29T15:31:31;10.00;;;3.20;;
59770;SDS011;45649;53.014;6.600;2022-12-29T15:34:10;10.93;;;3.07;;
59770;SDS011;45649;53.014;6.600;2022-12-29T15:36:37;11.47;;;3.30;;
59770;SDS011;45649;53.014;6.600;2022-12-29T15:42:02;9.33;;;2.83;;
59770;SDS011;45649;53.014;6.600;2022-12-29T15:44:34;10.23;;;2.70;;
59770;SDS011;45649;53.014;6.600;2022-12-29T15:47:06;8.57;;;2.60;;
59770;SDS011;45649;53.014;6.600;2022-12-29T15:49:32;8.57;;;2.27;;
59770;SDS011;45649;53.014;6.600;2022-12-29T15:51:58;15.80;;;2.93;;
59770;SDS011;45649;53.014;6.600;2022-12-29T15:54:24;9.33;;;2.10;;
59770;SDS011;45649;53.014;6.600;2022-12-29T15:56:52;9.27;;;2.50;;
59770;SDS011;45649;53.014;6.600;2022-12-29T15:59:25;9.70;;;2.10;;
59770;SDS011;45649;53.014;6.600;2022-12-29T16:01:51;11.37;;;3.70;;
59770;SDS011;45649;53.014;6.600;2022-12-29T16:04:18;10.50;;;3.50;;
59770;SDS011;45649;53.014;6.600;2022-12-29T16:06:54;10.70;;;2.77;;
59770;SDS011;45649;53.014;6.600;2022-12-29T16:09:42;6.80;;;2.53;;
59770;SDS011;45649;53.014;6.600;2022-12-29T16:12:19;10.67;;;3.47;;
59770;SDS011;45649;53.014;6.600;2022-12-29T16:14:56;12.60;;;3.40;;
59770;SDS011;45649;53.014;6.600;2022-12-29T16:17:24;10.47;;;3.13;;
59770;SDS011;45649;53.014;6.600;2022-12-29T16:19:56;12.10;;;2.90;;
59770;SDS011;45649;53.014;6.600;2022-12-29T16:24:54;10.97;;;3.03;;
59770;SDS011;45649;53.014;6.600;2022-12-29T16:27:22;9.57;;;2.47;;
59770;SDS011;45649;53.014;6.600;2022-12-29T16:29:51;11.90;;;2.77;;
59770;SDS011;45649;53.014;6.600;2022-12-29T16:32:24;9.77;;;3.00;;
59770;SDS011;45649;53.014;6.600;2022-12-29T16:34:50;9.77;;;2.70;;
59770;SDS011;45649;53.014;6.600;2022-12-29T16:39:47;11.87;;;3.27;;
59770;SDS011;45649;53.014;6.600;2022-12-29T16:45:07;7.93;;;3.00;;
59770;SDS011;45649;53.014;6.600;2022-12-29T16:47:43;7.53;;;2.83;;
59770;SDS011;45649;53.014;6.600;2022-12-29T16:50:16;8.47;;;3.10;;
59770;SDS011;45649;53.014;6.600;2022-12-29T16:52:46;4.33;;;1.83;;
59770;SDS011;45649;53.014;6.600;2022-12-29T16:55:17;4.43;;;1.90;;
59770;SDS011;45649;53.014;6.600;2022-12-29T16:57:44;5.63;;;2.37;;
59770;SDS011;45649;53.014;6.600;2022-12-29T17:00:31;2.90;;;1.70;;
59770;SDS011;45649;53.014;6.600;2022-12-29T17:02:59;3.67;;;2.07;;
59770;SDS011;45649;53.014;6.600;2022-12-29T17:05:26;3.77;;;1.70;;
59770;SDS011;45649;53.014;6.600;2022-12-29T17:07:52;4.93;;;1.87;;
59770;SDS011;45649;53.014;6.600;2022-12-29T17:10:19;3.27;;;1.60;;
59770;SDS011;45649;53.014;6.600;2022-12-29T17:13:06;3.23;;;1.50;;
59770;SDS011;45649;53.014;6.600;2022-12-29T17:15:33;4.20;;;1.70;;
59770;SDS011;45649;53.014;6.600;2022-12-29T17:17:59;2.60;;;1.70;;
59770;SDS011;45649;53.014;6.600;2022-12-29T17:20:26;4.77;;;1.67;;
59770;SDS011;45649;53.014;6.600;2022-12-29T17:22:53;4.47;;;1.80;;
59770;SDS011;45649;53.014;6.600;2022-12-29T17:25:33;4.83;;;1.80;;
59770;SDS011;45649;53.014;6.600;2022-12-29T17:28:02;5.37;;;2.17;;
59770;SDS011;45649;53.014;6.600;2022-12-29T17:30:31;5.20;;;2.03;;
59770;SDS011;45649;53.014;6.600;2022-12-29T17:33:02;6.77;;;2.30;;
59770;SDS011;45649;53.014;6.600;2022-12-29T17:35:29;6.10;;;2.60;;